createdAt,value
2018-06-12T00:02:14.552Z,70.39
2018-06-12T00:04:42.875Z,70.37
2018-06-12T00:07:11.189Z,70.23
2018-06-12T00:09:39.511Z,70.21
2018-06-12T00:12:07.252Z,70.22
2018-06-12T00:14:36.206Z,70.30
2018-06-12T00:17:04.530Z,70.25
2018-06-12T00:19:32.867Z,70.15
2018-06-12T00:22:00.614Z,70.04
2018-06-12T00:24:29.521Z,69.92
2018-06-12T00:26:57.267Z,69.77
2018-06-12T00:29:26.168Z,69.64
2018-06-12T00:31:54.491Z,69.55
2018-06-12T00:34:22.236Z,69.42
2018-06-12T00:36:50.558Z,69.39
2018-06-12T00:39:19.455Z,69.43
2018-06-12T00:41:47.780Z,69.25
2018-06-12T00:44:15.534Z,69.24
2018-06-12T00:46:44.437Z,69.14
2018-06-12T00:49:12.176Z,69.13
2018-06-12T00:51:41.075Z,69.10
2018-06-12T00:54:09.399Z,69.09
2018-06-12T00:56:46.527Z,68.99
2018-06-12T00:59:14.273Z,69.00
2018-06-12T01:01:42.589Z,68.86
2018-06-12T01:04:11.487Z,68.86
2018-06-12T01:06:39.813Z,68.78
2018-06-12T01:09:08.117Z,68.38
2018-06-12T01:11:36.465Z,67.95
2018-06-12T01:14:04.781Z,67.71
2018-06-12T01:16:33.158Z,67.41
2018-06-12T01:19:00.903Z,67.47
2018-06-12T01:21:29.232Z,67.52
2018-06-12T01:23:58.141Z,67.72
2018-06-12T01:26:26.458Z,68.02
2018-06-12T01:28:54.201Z,68.10
2018-06-12T01:31:23.089Z,68.13
2018-06-12T01:33:51.420Z,68.33
2018-06-12T01:36:19.736Z,68.32
2018-06-12T01:38:47.474Z,68.44
2018-06-12T01:41:16.377Z,68.50
2018-06-12T01:43:44.702Z,68.63
2018-06-12T01:46:13.021Z,68.69
2018-06-12T01:48:41.340Z,68.48
2018-06-12T01:51:09.882Z,68.44
2018-06-12T01:53:37.973Z,68.58
2018-06-12T01:56:06.293Z,68.62
2018-06-12T01:58:34.613Z,68.54
2018-06-12T02:01:02.646Z,68.45
2018-06-12T02:03:31.572Z,68.45
2018-06-12T02:05:59.321Z,68.41
2018-06-12T02:08:28.215Z,68.30
2018-06-12T02:10:56.534Z,68.25
2018-06-12T02:13:24.852Z,68.35
2018-06-12T02:15:52.600Z,68.40
2018-06-12T02:18:21.522Z,68.52
2018-06-12T02:20:49.825Z,68.37
2018-06-12T02:23:18.144Z,68.39
2018-06-12T02:25:45.886Z,68.28
2018-06-12T02:28:14.792Z,68.53
2018-06-12T02:30:43.112Z,68.51
2018-06-12T02:33:11.423Z,68.37
2018-06-12T02:35:39.739Z,68.36
2018-06-12T02:38:07.483Z,68.37
2018-06-12T02:40:36.387Z,68.48
2018-06-12T02:43:04.706Z,68.58
2018-06-12T02:45:33.034Z,68.90
2018-06-12T02:48:01.354Z,68.80
2018-06-12T02:50:29.681Z,68.98
2018-06-12T02:52:57.417Z,69.39
2018-06-12T02:55:25.915Z,69.37
2018-06-12T02:57:54.631Z,69.55
2018-06-12T03:00:22.983Z,69.48
2018-06-12T03:02:50.723Z,69.37
2018-06-12T03:05:19.617Z,69.38
2018-06-12T03:07:47.355Z,69.38
2018-06-12T03:10:16.253Z,69.30
2018-06-12T03:12:44.575Z,69.11
2018-06-12T03:15:12.907Z,69.27
2018-06-12T03:17:41.230Z,69.22
2018-06-12T03:20:09.858Z,69.03
2018-06-12T03:22:37.845Z,68.86
2018-06-12T03:25:06.740Z,68.89
2018-06-12T03:27:35.063Z,68.64
2018-06-12T03:30:02.800Z,68.31
2018-06-12T03:32:31.708Z,67.74
2018-06-12T03:35:00.027Z,67.17
2018-06-12T03:37:28.342Z,67.28
2018-06-12T03:39:56.664Z,66.87
2018-06-12T03:42:24.990Z,66.11
2018-06-12T03:44:53.309Z,66.04
2018-06-12T03:47:21.114Z,65.83
2018-06-12T03:49:49.958Z,65.63
2018-06-12T03:52:18.313Z,65.80
2018-06-12T03:54:46.019Z,65.58
2018-06-12T03:57:14.924Z,65.82
2018-06-12T03:59:43.237Z,65.99
2018-06-12T04:02:10.978Z,66.03
2018-06-12T04:04:39.869Z,66.12
2018-06-12T04:07:08.190Z,66.15
2018-06-12T04:09:35.930Z,66.31
2018-06-12T04:12:04.473Z,66.35
2018-06-12T04:14:33.171Z,66.41
2018-06-12T04:17:01.493Z,66.49
2018-06-12T04:19:29.248Z,66.53
2018-06-12T04:21:57.595Z,66.65
2018-06-12T04:24:26.494Z,66.73
2018-06-12T04:26:54.819Z,66.83
2018-06-12T04:29:23.146Z,66.92
2018-06-12T04:31:51.466Z,67.18
2018-06-12T04:34:19.220Z,67.32
2018-06-12T04:36:47.538Z,67.52
2018-06-12T04:39:16.440Z,67.41
2018-06-12T04:41:44.753Z,67.56
2018-06-12T04:44:13.091Z,67.79
2018-06-12T04:46:41.409Z,67.70
2018-06-12T04:49:09.725Z,67.72
2018-06-12T04:51:38.062Z,67.68
2018-06-12T04:54:06.383Z,67.89
2018-06-12T04:56:34.702Z,68.49
2018-06-12T04:59:03.039Z,68.45
2018-06-12T05:01:31.377Z,68.40
2018-06-12T05:03:59.705Z,68.46
2018-06-12T05:06:28.039Z,68.41
2018-06-12T05:08:55.785Z,68.36
2018-06-12T05:11:24.111Z,68.31
2018-06-12T05:13:53.012Z,68.42
2018-06-12T05:16:21.360Z,68.35
2018-06-12T05:18:49.704Z,68.27
2018-06-12T05:21:18.824Z,68.26
2018-06-12T05:23:47.436Z,68.23
2018-06-12T05:26:15.561Z,68.31
2018-06-12T05:28:43.361Z,68.21
2018-06-12T05:31:12.271Z,67.94
2018-06-12T05:33:40.583Z,67.72
2018-06-12T05:36:08.898Z,67.48
2018-06-12T05:38:36.728Z,67.60
2018-06-12T05:41:05.569Z,67.09
2018-06-12T05:43:34.576Z,66.70
2018-06-12T05:46:03.186Z,66.07
2018-06-12T05:48:31.520Z,66.21
2018-06-12T05:50:59.855Z,66.26
2018-06-12T05:53:28.193Z,66.19
2018-06-12T05:55:56.035Z,65.74
2018-06-12T05:58:25.069Z,65.97
2018-06-12T06:00:53.166Z,66.08
2018-06-12T06:03:21.493Z,65.81
2018-06-12T06:05:49.847Z,65.66
2018-06-12T06:08:18.184Z,65.53
2018-06-12T06:10:46.496Z,65.40
2018-06-12T06:13:14.827Z,65.31
2018-06-12T06:15:43.166Z,65.48
2018-06-12T06:18:11.505Z,65.30
2018-06-12T06:20:39.829Z,64.97
2018-06-12T06:23:08.223Z,64.82
2018-06-12T06:25:36.610Z,64.89
2018-06-12T06:28:04.951Z,64.89
2018-06-12T06:30:33.279Z,65.05
2018-06-12T06:33:01.431Z,65.12
2018-06-12T06:35:29.931Z,65.36
2018-06-12T06:37:58.257Z,64.91
2018-06-12T06:40:26.654Z,65.18
2018-06-12T06:42:55.015Z,64.98
2018-06-12T06:45:23.323Z,65.06
2018-06-12T06:47:51.662Z,65.05
2018-06-12T06:50:19.423Z,65.02
2018-06-12T06:52:48.323Z,65.22
2018-06-12T06:55:16.705Z,65.16
2018-06-12T06:57:44.414Z,65.01
2018-06-12T07:00:13.324Z,65.16
2018-06-12T07:02:41.654Z,65.19
2018-06-12T07:05:10.007Z,65.29
2018-06-12T07:07:37.741Z,65.39
2018-06-12T07:10:06.655Z,65.47
2018-06-12T07:12:34.993Z,65.42
2018-06-12T07:15:02.762Z,65.52
2018-06-12T07:17:31.640Z,65.56
2018-06-12T07:19:59.426Z,65.12
2018-06-12T07:22:28.281Z,65.48
2018-06-12T07:24:56.609Z,65.85
2018-06-12T07:27:24.994Z,66.37
2018-06-12T07:29:53.428Z,66.76
2018-06-12T07:32:21.764Z,67.40
2018-06-12T07:34:50.075Z,67.72
2018-06-12T07:37:18.393Z,67.84
2018-06-12T07:39:46.726Z,67.53
2018-06-12T07:42:15.269Z,67.23
2018-06-12T07:44:42.786Z,67.10
2018-06-12T07:47:11.686Z,66.99
2018-06-12T07:49:40.010Z,66.80
2018-06-12T07:52:08.332Z,66.58
2018-06-12T07:54:36.672Z,66.50
2018-06-12T07:57:04.429Z,66.11
2018-06-12T07:59:33.326Z,65.98
2018-06-12T08:02:01.648Z,65.73
2018-06-12T08:04:30.230Z,65.86
2018-06-12T08:06:57.780Z,65.42
2018-06-12T08:09:26.672Z,65.17
2018-06-12T08:11:55.012Z,65.28
2018-06-12T08:14:23.350Z,64.50
2018-06-12T08:16:51.697Z,64.14
2018-06-12T08:19:19.457Z,64.35
2018-06-12T08:21:48.362Z,62.53
2018-06-12T08:24:16.697Z,60.83
2018-06-12T08:26:44.437Z,61.09
2018-06-12T08:29:13.390Z,61.98
2018-06-12T08:31:41.742Z,62.06
2018-06-12T08:34:10.077Z,62.47
2018-06-12T08:36:37.821Z,63.30
2018-06-12T08:39:06.740Z,63.76
2018-06-12T08:41:35.091Z,64.00
2018-06-12T08:44:03.408Z,64.08
2018-06-12T08:46:31.798Z,64.18
2018-06-12T08:48:59.496Z,64.02
2018-06-12T08:51:27.848Z,64.07
2018-06-12T08:53:56.762Z,64.30
2018-06-12T08:56:25.091Z,64.32
2018-06-12T08:58:53.432Z,63.77
2018-06-12T09:01:21.740Z,64.34
2018-06-12T09:03:50.073Z,64.52
2018-06-12T09:06:18.649Z,64.45
2018-06-12T09:08:46.779Z,64.44
2018-06-12T09:11:14.535Z,64.84
2018-06-12T09:13:43.291Z,65.09
2018-06-12T09:16:11.791Z,66.05
2018-06-12T09:18:40.129Z,66.83
2018-06-12T09:21:08.444Z,66.33
2018-06-12T09:23:36.194Z,65.91
2018-06-12T09:26:05.088Z,65.35
2018-06-12T09:28:32.837Z,65.17
2018-06-12T09:31:02.012Z,65.00
2018-06-12T09:33:30.114Z,65.59
2018-06-12T09:35:58.445Z,65.89
2018-06-12T09:38:26.769Z,65.99
2018-06-12T09:40:55.107Z,66.01
2018-06-12T09:43:23.453Z,66.03
2018-06-12T09:45:51.201Z,65.87
2018-06-12T09:48:19.626Z,65.83
2018-06-12T09:50:48.456Z,65.40
2018-06-12T09:53:16.775Z,65.22
2018-06-12T09:55:45.131Z,65.06
2018-06-12T09:58:13.446Z,65.94
2018-06-12T10:00:42.636Z,66.05
2018-06-12T10:03:12.600Z,66.60
2018-06-12T10:05:40.857Z,67.02
2018-06-12T10:08:08.643Z,67.23
2018-06-12T10:10:37.573Z,67.64
2018-06-12T10:13:05.894Z,68.35
2018-06-12T10:15:38.722Z,69.01
2018-06-12T10:18:07.049Z,69.09
2018-06-12T10:20:35.958Z,68.69
2018-06-12T10:23:04.350Z,67.89
2018-06-12T10:25:32.100Z,67.60
2018-06-12T10:28:01.002Z,67.01
2018-06-12T10:30:29.764Z,66.51
2018-06-12T10:32:58.461Z,66.79
2018-06-12T10:35:26.572Z,67.06
2018-06-12T10:37:54.930Z,66.56
2018-06-12T10:40:23.746Z,66.51
2018-06-12T10:42:53.162Z,66.26
2018-06-12T10:45:21.472Z,65.27
2018-06-12T10:47:50.888Z,65.12
2018-06-12T10:50:19.249Z,64.87
2018-06-12T10:52:48.032Z,64.93
2018-06-12T10:55:16.122Z,65.41
2018-06-12T10:57:44.669Z,65.59
2018-06-12T11:00:12.197Z,65.57
2018-06-12T11:02:43.290Z,65.47
2018-06-12T11:05:10.741Z,65.38
2018-06-12T11:07:40.317Z,65.15
2018-06-12T11:10:09.350Z,65.02
2018-06-12T11:12:37.674Z,64.69
2018-06-12T11:15:05.552Z,64.74
2018-06-12T11:17:34.371Z,65.02
2018-06-12T11:20:02.924Z,65.43
2018-06-12T11:22:31.043Z,65.74
2018-06-12T11:24:59.374Z,65.83
2018-06-12T11:27:27.720Z,65.36
2018-06-12T11:29:56.041Z,64.61
2018-06-12T11:32:26.349Z,64.39
2018-06-12T11:34:53.253Z,62.84
2018-06-12T11:37:24.725Z,63.26
2018-06-12T11:39:51.850Z,62.81
2018-06-12T11:42:20.176Z,61.99
2018-06-12T11:44:48.516Z,61.98
2018-06-12T11:47:16.863Z,60.85
2018-06-12T11:49:46.045Z,58.71
2018-06-12T11:52:14.360Z,58.84
2018-06-12T11:54:43.430Z,58.45
2018-06-12T11:57:11.586Z,57.58
2018-06-12T11:59:39.931Z,57.29
2018-06-12T12:02:07.695Z,56.89
2018-06-12T12:04:36.612Z,57.16
2018-06-12T12:07:04.930Z,56.97
2018-06-12T12:09:32.679Z,56.70
2018-06-12T12:12:01.057Z,56.84
2018-06-12T12:14:30.184Z,56.18
2018-06-12T12:16:58.537Z,56.12
2018-06-12T12:19:26.834Z,55.66
2018-06-12T12:21:55.158Z,55.63
2018-06-12T12:24:22.939Z,55.35
2018-06-12T12:26:52.012Z,54.92
2018-06-12T12:29:20.349Z,55.27
2018-06-12T12:31:48.700Z,54.82
2018-06-12T12:34:17.677Z,54.78
2018-06-12T12:36:46.124Z,54.66
2018-06-12T12:39:14.443Z,54.98
2018-06-12T12:41:42.323Z,54.86
2018-06-12T12:44:11.375Z,54.54
2018-06-12T12:46:39.722Z,54.42
2018-06-12T12:49:07.545Z,54.24
2018-06-12T12:51:36.390Z,54.10
2018-06-12T12:54:04.718Z,54.38
2018-06-12T12:56:33.769Z,55.16
2018-06-12T12:59:01.374Z,55.68
2018-06-12T13:01:29.128Z,55.83
2018-06-12T13:03:58.025Z,55.80
2018-06-12T13:06:26.381Z,55.85
2018-06-12T13:08:54.118Z,56.14
2018-06-12T13:11:22.826Z,56.35
2018-06-12T13:13:52.349Z,56.41
2018-06-12T13:16:20.396Z,56.71
2018-06-12T13:18:48.124Z,57.02
2018-06-12T13:21:17.038Z,57.02
2018-06-12T13:23:45.596Z,57.26
2018-06-12T13:26:13.922Z,57.02
2018-06-12T13:28:42.268Z,56.83
2018-06-12T13:31:11.001Z,56.63
2018-06-12T13:33:39.105Z,56.81
2018-06-12T13:36:07.432Z,57.19
2018-06-12T13:38:35.819Z,57.03
2018-06-12T13:41:04.164Z,57.00
2018-06-12T13:43:32.746Z,56.72
2018-06-12T13:46:01.074Z,56.79
2018-06-12T13:48:30.510Z,56.50
2018-06-12T13:50:57.772Z,56.16
2018-06-12T13:53:26.126Z,56.24
2018-06-12T13:55:54.490Z,55.75
2018-06-12T13:58:22.242Z,55.23
2018-06-12T14:00:51.154Z,54.73
2018-06-12T14:03:18.906Z,53.56
2018-06-12T14:05:47.250Z,52.60
2018-06-12T14:08:16.150Z,52.60
2018-06-12T14:10:44.491Z,52.31
2018-06-12T14:13:12.828Z,52.21
2018-06-12T14:15:40.574Z,52.30
2018-06-12T14:18:08.930Z,52.31
2018-06-12T14:20:37.878Z,52.61
2018-06-12T14:23:06.185Z,52.81
2018-06-12T14:25:34.512Z,52.77
2018-06-12T14:28:02.834Z,52.79
2018-06-12T14:30:30.598Z,52.88
2018-06-12T14:32:59.503Z,52.80
2018-06-12T14:35:27.254Z,52.35
2018-06-12T14:37:56.178Z,52.11
2018-06-12T14:40:25.655Z,52.03
2018-06-12T14:42:53.960Z,51.88
2018-06-12T14:45:22.405Z,51.59
2018-06-12T14:47:51.021Z,51.82
2018-06-12T14:50:19.355Z,51.67
2018-06-12T14:52:49.085Z,51.72
2018-06-12T14:55:18.779Z,51.84
2018-06-12T14:57:46.931Z,51.88
2018-06-12T15:00:15.422Z,51.85
2018-06-12T15:02:43.756Z,51.80
2018-06-12T15:05:12.132Z,51.63
2018-06-12T15:07:40.664Z,51.70
2018-06-12T15:10:09.791Z,51.95
2018-06-12T15:12:38.140Z,52.29
2018-06-12T15:15:06.470Z,52.76
2018-06-12T15:17:34.204Z,52.99
2018-06-12T15:20:03.117Z,52.99
2018-06-12T15:22:31.435Z,53.24
2018-06-12T15:24:59.193Z,53.79
2018-06-12T15:27:28.118Z,54.06
2018-06-12T15:29:56.457Z,54.26
2018-06-12T15:32:25.850Z,54.46
2018-06-12T15:34:54.187Z,54.68
2018-06-12T15:37:22.504Z,55.17
2018-06-12T15:39:50.842Z,55.53
2018-06-12T15:42:19.441Z,55.96
2018-06-12T15:44:47.614Z,56.42
2018-06-12T15:47:15.891Z,56.77
2018-06-12T15:49:44.210Z,57.16
2018-06-12T15:55:23.296Z,58.00
2018-06-12T15:57:53.552Z,58.65
2018-06-12T16:00:32.175Z,59.08
2018-06-12T16:06:17.541Z,59.67
2018-06-12T16:17:40.329Z,59.99
2018-06-12T16:20:32.543Z,60.07
2018-06-12T16:26:19.135Z,60.37
2018-06-12T16:28:57.839Z,60.53
2018-06-12T16:31:33.774Z,61.09
2018-06-12T16:37:27.265Z,61.80
2018-06-12T16:40:07.279Z,62.15
2018-06-12T16:42:41.632Z,62.20
2018-06-12T16:45:24.042Z,62.35
2018-06-12T16:48:14.732Z,62.34
2018-06-12T16:51:01.412Z,62.55
2018-06-12T16:53:38.473Z,62.62
2018-06-12T16:56:15.891Z,62.76
2018-06-12T16:58:59.037Z,62.90
2018-06-12T17:01:27.769Z,62.86
2018-06-12T17:03:55.580Z,62.85
2018-06-12T17:06:24.489Z,63.01
2018-06-12T17:08:52.826Z,62.86
2018-06-12T17:11:20.567Z,63.10
2018-06-12T17:13:49.475Z,63.52
2018-06-12T17:16:17.803Z,63.47
2018-06-12T17:18:46.129Z,63.69
2018-06-12T17:21:14.446Z,63.90
2018-06-12T17:23:42.784Z,64.10
2018-06-12T17:26:10.527Z,64.23
2018-06-12T17:28:39.426Z,64.04
2018-06-12T17:31:08.033Z,64.02
2018-06-12T17:33:35.778Z,64.22
2018-06-12T17:36:04.682Z,64.37
2018-06-12T17:38:33.038Z,64.46
2018-06-12T17:41:01.386Z,64.60
2018-06-12T17:43:29.809Z,64.71
2018-06-12T17:45:58.798Z,64.80
2018-06-12T17:48:27.659Z,65.10
2018-06-12T17:50:56.760Z,65.14
2018-06-12T17:53:25.763Z,65.37
2018-06-12T17:55:55.798Z,65.44
2018-06-12T17:58:26.843Z,65.36
2018-06-12T18:00:57.453Z,65.18
2018-06-12T18:03:26.493Z,64.81
2018-06-12T18:05:55.462Z,64.72
2018-06-12T18:08:24.376Z,64.46
2018-06-12T18:10:54.066Z,64.42
2018-06-12T18:13:23.727Z,64.49
2018-06-12T18:15:53.500Z,64.61
2018-06-12T18:18:22.181Z,64.59
2018-06-12T18:20:52.440Z,64.70
2018-06-12T18:23:21.123Z,65.12
2018-06-12T18:25:49.967Z,65.09
2018-06-12T18:28:18.837Z,65.16
2018-06-12T18:30:47.374Z,65.10
2018-06-12T18:33:15.139Z,65.34
2018-06-12T18:35:44.218Z,65.32
2018-06-12T18:38:12.536Z,65.20
2018-06-12T18:40:40.271Z,65.31
2018-06-12T18:43:09.172Z,65.17
2018-06-12T18:45:37.590Z,65.16
2018-06-12T18:48:09.502Z,65.42
2018-06-12T18:50:37.830Z,65.55
2018-06-12T18:53:06.167Z,65.49
2018-06-12T18:55:33.909Z,65.68
2018-06-12T18:58:03.048Z,65.65
2018-06-12T19:00:31.213Z,65.58
2018-06-12T19:02:59.507Z,65.71
2018-06-12T19:05:27.884Z,65.75
2018-06-12T19:07:56.213Z,65.55
2018-06-12T19:10:24.559Z,65.44
2018-06-12T19:12:52.872Z,65.61
2018-06-12T19:15:21.228Z,65.59
2018-06-12T19:17:49.564Z,65.85
2018-06-12T19:20:17.900Z,65.77
2018-06-12T19:22:45.658Z,65.80
2018-06-12T19:25:14.693Z,65.71
2018-06-12T19:27:43.030Z,65.72
2018-06-12T19:30:11.385Z,65.57
2018-06-12T19:32:39.745Z,65.49
2018-06-12T19:35:07.517Z,65.69
2018-06-12T19:37:36.442Z,66.00
2018-06-12T19:40:04.794Z,66.02
2018-06-12T19:42:33.266Z,65.92
2018-06-12T19:45:01.908Z,66.03
2018-06-12T19:47:31.150Z,65.97
2018-06-12T19:49:59.486Z,65.83
2018-06-12T19:52:27.823Z,66.16
2018-06-12T19:54:56.155Z,65.88
2018-06-12T19:57:24.481Z,65.70
2018-06-12T19:59:52.858Z,66.07
2018-06-12T20:02:21.218Z,66.37
2018-06-12T20:04:49.552Z,66.45
2018-06-12T20:07:17.885Z,66.44
2018-06-12T20:09:46.216Z,66.51
2018-06-12T20:12:14.539Z,66.53
2018-06-12T20:14:42.312Z,66.66
2018-06-12T20:17:11.217Z,66.67
2018-06-12T20:19:39.012Z,66.79
2018-06-12T20:22:07.317Z,66.83
2018-06-12T20:24:35.650Z,66.92
2018-06-12T20:27:04.547Z,67.15
2018-06-12T20:29:32.878Z,67.46
2018-06-12T20:32:01.201Z,67.56
2018-06-12T20:34:29.529Z,67.76
2018-06-12T20:36:57.280Z,67.99
2018-06-12T20:39:26.185Z,68.49
2018-06-12T20:41:54.011Z,68.88
2018-06-12T20:44:22.937Z,69.09
2018-06-12T20:46:51.277Z,69.06
2018-06-12T20:49:19.623Z,69.25
2018-06-12T20:51:49.198Z,69.17
2018-06-12T20:54:29.938Z,69.18
2018-06-12T21:00:20.438Z,69.50
2018-06-12T21:03:05.686Z,69.29
2018-06-12T21:08:24.865Z,68.44
2018-06-12T21:11:01.253Z,68.59
2018-06-12T21:13:51.897Z,69.06
2018-06-12T21:16:30.240Z,69.55
2018-06-12T21:19:09.316Z,70.09
2018-06-12T21:33:53.791Z,72.01
2018-06-12T21:42:36.887Z,72.38
2018-06-12T21:45:24.114Z,72.39
2018-06-12T21:48:04.115Z,71.97
2018-06-12T21:50:42.281Z,71.54
2018-06-12T21:53:22.679Z,71.28
2018-06-12T21:55:59.273Z,70.87
2018-06-12T21:58:39.024Z,70.61
2018-06-12T22:01:16.289Z,70.62
2018-06-12T22:06:54.607Z,70.78
2018-06-12T22:09:32.871Z,70.84
2018-06-12T22:12:09.091Z,70.64
2018-06-12T22:14:46.255Z,70.54
2018-06-12T22:17:26.520Z,70.64
2018-06-12T22:20:20.255Z,70.54
2018-06-12T22:22:59.216Z,70.41
2018-06-12T22:25:43.241Z,70.50
2018-06-12T22:28:20.513Z,70.66
2018-06-12T22:31:07.514Z,70.75
2018-06-12T22:33:50.236Z,70.86
2018-06-12T22:36:27.362Z,70.88
2018-06-12T22:39:04.251Z,71.06
2018-06-12T22:41:40.989Z,71.42
2018-06-12T22:44:11.933Z,71.64
2018-06-12T22:47:04.367Z,71.89
2018-06-12T22:49:41.133Z,72.11
2018-06-12T22:52:18.269Z,72.08
2018-06-12T22:54:55.555Z,72.02
2018-06-12T22:57:44.103Z,71.89
2018-06-12T23:00:20.853Z,71.75
2018-06-12T23:02:55.913Z,71.86
2018-06-12T23:05:51.553Z,71.87
2018-06-12T23:08:28.918Z,71.95
2018-06-12T23:11:09.209Z,72.13
2018-06-12T23:13:45.530Z,72.14
2018-06-12T23:19:38.540Z,72.42
2018-06-12T23:31:10.278Z,72.75
2018-06-12T23:33:49.011Z,73.15
2018-06-12T23:39:26.080Z,73.15
2018-06-12T23:42:15.887Z,72.81
2018-06-12T23:45:05.183Z,72.90
2018-06-12T23:47:47.346Z,72.53
2018-06-12T23:50:21.993Z,72.26
2018-06-12T23:52:52.144Z,72.16
2018-06-12T23:55:54.827Z,72.32
2018-06-12T23:58:30.749Z,72.47
